Time;durP1;ratioP1;P1;durP2;ratioP2;P2;SDS_P1;SDS_P2;PMS_P1;PMS_P2;Temp;Humidity;BMP_temperature;BMP_pressure;BME280_temperature;BME280_humidity;BME280_pressure;Samples;Min_cycle;Max_cycle;Signal;HPM_P1;HPM_P2
2021/09/02 00:00:57;;;;;;;17.35;12.63;;;;;;;;;;5114216;28;20043;-69
2021/09/02 00:03:23;;;;;;;21.50;14.50;;;;;;;;;;5114211;28;20148;-68
2021/09/02 00:05:49;;;;;;;18.23;12.57;;;;;;;;;;5114266;28;20031;-69
2021/09/02 00:08:15;;;;;;;21.63;12.77;;;;;;;;;;5113206;28;20031;-69
2021/09/02 00:10:41;;;;;;;18.27;12.98;;;;;;;;;;5114147;28;20532;-68
2021/09/02 00:13:07;;;;;;;26.45;13.90;;;;;;;;;;5114558;28;20024;-68
2021/09/02 00:15:33;;;;;;;19.38;12.32;;;;;;;;;;5114206;28;20035;-69
2021/09/02 00:18:00;;;;;;;18.92;13.27;;;;;;;;;;5113352;28;20132;-69
2021/09/02 00:20:26;;;;;;;18.77;12.82;;;;;;;;;;5114061;28;20032;-68
2021/09/02 00:22:52;;;;;;;20.90;14.38;;;;;;;;;;5113827;28;20489;-69
2021/09/02 00:25:18;;;;;;;20.42;13.52;;;;;;;;;;5113638;28;20083;-68
2021/09/02 00:27:44;;;;;;;32.75;13.57;;;;;;;;;;5112996;28;20034;-69
2021/09/02 00:30:11;;;;;;;23.77;13.45;;;;;;;;;;5113159;28;20028;-68
2021/09/02 00:32:37;;;;;;;21.77;12.85;;;;;;;;;;5095658;28;20032;-68
2021/09/02 00:35:03;;;;;;;22.70;14.57;;;;;;;;;;5113771;28;20024;-68
2021/09/02 00:37:29;;;;;;;21.65;14.02;;;;;;;;;;5095080;28;20030;-68
2021/09/02 00:39:55;;;;;;;19.90;13.73;;;;;;;;;;5112361;28;20023;-68
2021/09/02 00:42:22;;;;;;;22.25;13.85;;;;;;;;;;5094661;28;20035;-68
2021/09/02 00:44:48;;;;;;;19.90;12.93;;;;;;;;;;5114219;28;20051;-69
2021/09/02 00:47:17;;;;;;;19.42;12.68;;;;;;;;;;5109331;28;20024;-68
2021/09/02 00:49:44;;;;;;;19.23;12.77;;;;;;;;;;5112750;28;20122;-68
2021/09/02 00:52:13;;;;;;;20.60;12.23;;;;;;;;;;5113044;28;20036;-68
2021/09/02 00:54:41;;;;;;;21.15;12.60;;;;;;;;;;5112987;28;20484;-68
2021/09/02 00:57:09;;;;;;;23.08;11.82;;;;;;;;;;5099822;28;20107;-68
2021/09/02 00:59:35;;;;;;;19.17;10.90;;;;;;;;;;5110804;28;20034;-68
2021/09/02 01:02:01;;;;;;;16.13;11.13;;;;;;;;;;5107127;28;20024;-68
2021/09/02 01:04:27;;;;;;;15.48;10.25;;;;;;;;;;5113266;28;20039;-68
2021/09/02 01:06:53;;;;;;;17.83;11.32;;;;;;;;;;5100316;28;20028;-68
2021/09/02 01:09:20;;;;;;;20.02;11.85;;;;;;;;;;5111618;28;20024;-68
2021/09/02 01:11:46;;;;;;;18.77;12.05;;;;;;;;;;5112184;28;20024;-68
2021/09/02 01:14:16;;;;;;;18.02;11.57;;;;;;;;;;5113534;28;20027;-69
2021/09/02 01:16:42;;;;;;;20.33;12.20;;;;;;;;;;5094359;28;20027;-68
2021/09/02 01:19:08;;;;;;;22.60;12.48;;;;;;;;;;5112190;28;20072;-68
2021/09/02 01:21:34;;;;;;;23.27;12.93;;;;;;;;;;5112908;28;20019;-68
2021/09/02 01:24:00;;;;;;;17.15;11.43;;;;;;;;;;5106410;28;20858;-68
2021/09/02 01:26:27;;;;;;;20.55;12.27;;;;;;;;;;5111375;28;20067;-69
2021/09/02 01:28:53;;;;;;;19.95;12.40;;;;;;;;;;5111092;28;20552;-69
2021/09/02 01:31:20;;;;;;;20.60;11.82;;;;;;;;;;5111665;28;20023;-69
2021/09/02 01:33:47;;;;;;;22.63;12.57;;;;;;;;;;5112639;28;20035;-68
2021/09/02 01:36:13;;;;;;;20.15;13.32;;;;;;;;;;5113065;28;20032;-68
2021/09/02 01:38:39;;;;;;;22.33;12.27;;;;;;;;;;5111128;28;20016;-69
2021/09/02 01:41:05;;;;;;;20.88;13.00;;;;;;;;;;5112331;28;20021;-68
2021/09/02 01:43:31;;;;;;;24.23;14.65;;;;;;;;;;5112647;28;20023;-69
2021/09/02 01:45:58;;;;;;;25.52;14.27;;;;;;;;;;5110532;28;20031;-68
2021/09/02 01:48:24;;;;;;;21.35;14.35;;;;;;;;;;5107008;28;20020;-68
2021/09/02 01:50:50;;;;;;;21.75;15.50;;;;;;;;;;5107152;28;20059;-68
2021/09/02 01:53:18;;;;;;;22.52;15.57;;;;;;;;;;5111888;28;20488;-68
2021/09/02 01:55:45;;;;;;;23.45;16.15;;;;;;;;;;5111923;28;20065;-68
2021/09/02 01:58:12;;;;;;;24.27;16.38;;;;;;;;;;5091684;28;20056;-68
2021/09/02 02:00:38;;;;;;;26.75;17.27;;;;;;;;;;5109563;28;20046;-68
2021/09/02 02:03:04;;;;;;;21.48;15.52;;;;;;;;;;5109732;28;20034;-69
2021/09/02 02:05:30;;;;;;;20.00;14.80;;;;;;;;;;5112094;28;20019;-68
2021/09/02 02:07:57;;;;;;;23.25;15.43;;;;;;;;;;5092393;28;20031;-68
2021/09/02 02:10:26;;;;;;;23.60;16.08;;;;;;;;;;5111994;28;20024;-68
2021/09/02 02:12:52;;;;;;;21.35;16.40;;;;;;;;;;5112398;28;20016;-69
2021/09/02 02:15:19;;;;;;;23.92;15.98;;;;;;;;;;5112129;28;20035;-68
2021/09/02 02:17:45;;;;;;;27.13;16.67;;;;;;;;;;5110795;28;20016;-68
2021/09/02 02:20:12;;;;;;;21.92;16.33;;;;;;;;;;5111289;28;20077;-68
2021/09/02 02:22:38;;;;;;;26.85;16.38;;;;;;;;;;5100149;28;20561;-68
2021/09/02 02:25:04;;;;;;;25.70;17.20;;;;;;;;;;5093821;28;20080;-68
2021/09/02 02:27:30;;;;;;;26.08;17.60;;;;;;;;;;5093129;28;20027;-68
2021/09/02 02:29:56;;;;;;;23.45;15.73;;;;;;;;;;5091978;28;20023;-68
2021/09/02 02:32:22;;;;;;;25.83;16.80;;;;;;;;;;5111726;28;20042;-68
2021/09/02 02:34:49;;;;;;;25.40;16.58;;;;;;;;;;5110680;28;20042;-68
2021/09/02 02:37:15;;;;;;;24.15;16.98;;;;;;;;;;5093111;28;20497;-68
2021/09/02 02:39:41;;;;;;;24.13;15.82;;;;;;;;;;5112095;27;20030;-68
2021/09/02 02:42:08;;;;;;;25.70;17.38;;;;;;;;;;5116175;27;20042;-68
2021/09/02 02:44:34;;;;;;;27.00;15.80;;;;;;;;;;5111548;28;20024;-68
2021/09/02 02:47:00;;;;;;;23.83;15.60;;;;;;;;;;5105489;28;20093;-68
2021/09/02 02:49:27;;;;;;;23.42;15.32;;;;;;;;;;5109991;28;20480;-68
2021/09/02 02:51:53;;;;;;;22.50;15.73;;;;;;;;;;5104145;28;20031;-69
2021/09/02 02:54:19;;;;;;;25.42;15.70;;;;;;;;;;5111195;28;20032;-68
2021/09/02 02:56:45;;;;;;;25.52;16.63;;;;;;;;;;5111522;28;20032;-69
2021/09/02 02:59:11;;;;;;;23.42;17.05;;;;;;;;;;5091438;28;21269;-69
2021/09/02 03:01:37;;;;;;;26.48;16.33;;;;;;;;;;5111012;28;20031;-69
2021/09/02 03:04:04;;;;;;;23.67;16.30;;;;;;;;;;5111528;28;20504;-69
2021/09/02 03:06:30;;;;;;;23.17;16.98;;;;;;;;;;5092854;28;20020;-69
2021/09/02 03:08:56;;;;;;;23.73;16.73;;;;;;;;;;5109990;28;20164;-69
2021/09/02 03:11:22;;;;;;;23.10;16.17;;;;;;;;;;5111011;28;20484;-69
2021/09/02 03:13:48;;;;;;;21.73;14.45;;;;;;;;;;5111249;28;20028;-69
2021/09/02 03:16:15;;;;;;;18.75;12.32;;;;;;;;;;5110957;28;20063;-69
2021/09/02 03:18:41;;;;;;;25.70;13.60;;;;;;;;;;5109617;28;20036;-69
2021/09/02 03:21:07;;;;;;;22.15;13.40;;;;;;;;;;5110905;28;20469;-68
2021/09/02 03:23:33;;;;;;;22.20;14.70;;;;;;;;;;5100886;28;20478;-69
2021/09/02 03:25:59;;;;;;;22.63;14.13;;;;;;;;;;5088173;28;20424;-69
2021/09/02 03:28:25;;;;;;;20.00;12.68;;;;;;;;;;5108418;28;20028;-69
2021/09/02 03:30:51;;;;;;;22.92;13.07;;;;;;;;;;5112171;28;20474;-69
2021/09/02 03:33:17;;;;;;;19.75;13.07;;;;;;;;;;5115393;28;20477;-68
2021/09/02 03:35:43;;;;;;;20.67;13.88;;;;;;;;;;5114952;28;20102;-69
2021/09/02 03:38:10;;;;;;;22.40;13.73;;;;;;;;;;5113364;28;20028;-69
2021/09/02 03:40:36;;;;;;;18.48;13.50;;;;;;;;;;5096001;28;20051;-68
2021/09/02 03:43:02;;;;;;;20.25;12.60;;;;;;;;;;5115070;28;20027;-68
2021/09/02 03:45:28;;;;;;;20.83;12.13;;;;;;;;;;5114895;28;20043;-68
2021/09/02 03:47:54;;;;;;;21.83;11.27;;;;;;;;;;5100799;28;20020;-68
2021/09/02 03:50:20;;;;;;;19.65;11.18;;;;;;;;;;5107512;28;20035;-69
2021/09/02 03:52:46;;;;;;;19.20;11.07;;;;;;;;;;5107609;28;20051;-68
2021/09/02 03:55:12;;;;;;;20.42;11.38;;;;;;;;;;5114611;28;20432;-68
2021/09/02 03:57:39;;;;;;;16.60;10.65;;;;;;;;;;5095853;28;20082;-68
2021/09/02 04:00:07;;;;;;;17.55;10.38;;;;;;;;;;5112951;28;20044;-68
2021/09/02 04:02:33;;;;;;;16.38;10.93;;;;;;;;;;5114242;28;20038;-68
2021/09/02 04:04:59;;;;;;;18.08;9.77;;;;;;;;;;5114193;28;20172;-69
2021/09/02 04:07:25;;;;;;;20.70;10.93;;;;;;;;;;5113973;28;20031;-68
2021/09/02 04:09:51;;;;;;;16.70;10.32;;;;;;;;;;5112746;28;20122;-68
2021/09/02 04:12:17;;;;;;;17.73;10.15;;;;;;;;;;5114579;28;20098;-68
2021/09/02 04:14:43;;;;;;;15.52;9.73;;;;;;;;;;5114112;28;20027;-69
2021/09/02 04:17:09;;;;;;;19.77;11.10;;;;;;;;;;5113753;28;20027;-68
2021/09/02 04:19:35;;;;;;;18.55;10.77;;;;;;;;;;5112821;28;20492;-69
2021/09/02 04:22:02;;;;;;;17.38;10.77;;;;;;;;;;5095949;28;20127;-69
2021/09/02 04:24:28;;;;;;;21.20;11.55;;;;;;;;;;5113814;28;20027;-69
2021/09/02 04:26:54;;;;;;;18.23;10.98;;;;;;;;;;5094725;28;20020;-68
2021/09/02 04:29:20;;;;;;;22.38;12.05;;;;;;;;;;5112441;28;20034;-68
2021/09/02 04:31:46;;;;;;;18.38;11.15;;;;;;;;;;5114181;28;20107;-68
2021/09/02 04:34:13;;;;;;;20.13;11.60;;;;;;;;;;5113503;28;20467;-69
2021/09/02 04:36:39;;;;;;;16.05;11.23;;;;;;;;;;5113816;28;20031;-69
2021/09/02 04:39:05;;;;;;;15.70;10.65;;;;;;;;;;5111792;28;20028;-69
2021/09/02 04:41:32;;;;;;;17.45;11.43;;;;;;;;;;5110865;28;20070;-69
2021/09/02 04:43:58;;;;;;;20.63;13.23;;;;;;;;;;5114100;28;20038;-69
2021/09/02 04:46:24;;;;;;;16.70;11.43;;;;;;;;;;5113516;28;20020;-69
2021/09/02 04:48:50;;;;;;;16.83;10.57;;;;;;;;;;5101120;28;20028;-69
2021/09/02 04:51:17;;;;;;;20.52;11.57;;;;;;;;;;5105025;28;20040;-69
2021/09/02 04:53:44;;;;;;;15.25;10.18;;;;;;;;;;5113388;28;20122;-68
2021/09/02 04:56:10;;;;;;;17.17;9.98;;;;;;;;;;5110051;27;20043;-69
2021/09/02 04:58:36;;;;;;;14.30;9.88;;;;;;;;;;5112245;28;20477;-69
2021/09/02 05:01:02;;;;;;;19.33;11.30;;;;;;;;;;5113275;28;20392;-69
2021/09/02 05:03:28;;;;;;;14.90;9.75;;;;;;;;;;5094122;28;20126;-67
2021/09/02 05:05:54;;;;;;;18.55;10.63;;;;;;;;;;5112858;28;20485;-68
2021/09/02 05:08:22;;;;;;;18.45;8.90;;;;;;;;;;5111348;28;20034;-68
2021/09/02 05:10:48;;;;;;;15.88;11.02;;;;;;;;;;5112894;28;20102;-68
2021/09/02 05:13:14;;;;;;;16.70;9.43;;;;;;;;;;5112709;28;20035;-68
2021/09/02 05:15:40;;;;;;;14.70;9.73;;;;;;;;;;5112693;28;20115;-68
2021/09/02 05:18:06;;;;;;;16.42;9.52;;;;;;;;;;5111267;28;20027;-68
2021/09/02 05:20:32;;;;;;;16.92;9.95;;;;;;;;;;5112923;28;20012;-68
2021/09/02 05:22:58;;;;;;;18.23;10.35;;;;;;;;;;5107861;28;20070;-68
2021/09/02 05:25:25;;;;;;;15.60;9.88;;;;;;;;;;5102117;28;20031;-68
2021/09/02 05:27:51;;;;;;;18.10;10.68;;;;;;;;;;5111803;28;20028;-67
2021/09/02 05:30:17;;;;;;;15.90;9.50;;;;;;;;;;5107906;28;20058;-68
2021/09/02 05:32:43;;;;;;;18.92;11.00;;;;;;;;;;5109067;28;20024;-68
2021/09/02 05:35:10;;;;;;;18.42;10.57;;;;;;;;;;5105804;28;20035;-68
2021/09/02 05:37:36;;;;;;;18.27;11.68;;;;;;;;;;5111470;28;20036;-68
2021/09/02 05:40:03;;;;;;;18.40;12.55;;;;;;;;;;5107683;28;20026;-68
2021/09/02 05:42:29;;;;;;;16.95;10.73;;;;;;;;;;5110544;28;20069;-68
2021/09/02 05:44:56;;;;;;;17.50;11.80;;;;;;;;;;5110734;28;20065;-68
2021/09/02 05:47:22;;;;;;;18.17;11.65;;;;;;;;;;5093150;28;20031;-68
2021/09/02 05:49:48;;;;;;;16.63;11.27;;;;;;;;;;5110488;28;20027;-68
2021/09/02 05:52:14;;;;;;;15.75;10.98;;;;;;;;;;5112267;28;20040;-68
2021/09/02 05:54:40;;;;;;;17.80;11.23;;;;;;;;;;5093338;28;20051;-68
2021/09/02 05:57:06;;;;;;;14.80;10.57;;;;;;;;;;5106556;28;20020;-68
2021/09/02 05:59:32;;;;;;;14.60;8.85;;;;;;;;;;5106518;28;20099;-68
2021/09/02 06:01:58;;;;;;;14.60;8.18;;;;;;;;;;5111834;28;20059;-68
2021/09/02 06:04:24;;;;;;;13.43;8.85;;;;;;;;;;5110957;28;20034;-68
2021/09/02 06:06:50;;;;;;;12.10;7.13;;;;;;;;;;5109317;28;20023;-68
2021/09/02 06:09:16;;;;;;;14.25;7.18;;;;;;;;;;5110394;28;20085;-67
2021/09/02 06:11:42;;;;;;;12.55;6.75;;;;;;;;;;5109118;28;20134;-68
2021/09/02 06:14:09;;;;;;;11.98;6.85;;;;;;;;;;5110833;28;20027;-69
2021/09/02 06:16:35;;;;;;;12.27;6.60;;;;;;;;;;5088535;28;20035;-68
2021/09/02 06:19:01;;;;;;;14.77;7.05;;;;;;;;;;5107067;28;20028;-68
2021/09/02 06:21:27;;;;;;;13.80;7.07;;;;;;;;;;5090558;28;20397;-68
2021/09/02 06:23:53;;;;;;;14.52;7.35;;;;;;;;;;5110737;28;20034;-68
2021/09/02 06:26:19;;;;;;;12.40;7.22;;;;;;;;;;5110578;28;20124;-68
2021/09/02 06:28:45;;;;;;;16.52;7.18;;;;;;;;;;5109591;27;20081;-68
2021/09/02 06:31:11;;;;;;;17.13;7.25;;;;;;;;;;5109157;28;20032;-68
2021/09/02 06:33:39;;;;;;;16.83;7.82;;;;;;;;;;5105500;28;20028;-68
2021/09/02 06:36:05;;;;;;;15.13;7.20;;;;;;;;;;5105384;27;20031;-68
2021/09/02 06:38:31;;;;;;;14.57;7.20;;;;;;;;;;5109291;28;20107;-68
2021/09/02 06:40:57;;;;;;;12.52;7.03;;;;;;;;;;5108444;28;20027;-68
2021/09/02 06:43:23;;;;;;;13.50;6.72;;;;;;;;;;5107018;28;20035;-68
2021/09/02 06:45:49;;;;;;;14.65;6.68;;;;;;;;;;5112547;27;20027;-68
2021/09/02 06:48:15;;;;;;;16.50;7.97;;;;;;;;;;5104651;28;20044;-68
2021/09/02 06:50:41;;;;;;;13.48;7.97;;;;;;;;;;5109178;28;20039;-68
2021/09/02 06:53:07;;;;;;;14.75;7.85;;;;;;;;;;5105172;28;20027;-68
2021/09/02 06:55:33;;;;;;;14.65;8.90;;;;;;;;;;5103381;28;20031;-68
2021/09/02 06:58:00;;;;;;;18.90;8.75;;;;;;;;;;5091368;28;20100;-68
2021/09/02 07:00:26;;;;;;;16.17;8.75;;;;;;;;;;5108689;28;20028;-68
2021/09/02 07:02:52;;;;;;;13.80;8.05;;;;;;;;;;5110561;28;20456;-68
2021/09/02 07:05:18;;;;;;;15.60;8.60;;;;;;;;;;5108034;28;20381;-68
2021/09/02 07:07:44;;;;;;;14.63;8.75;;;;;;;;;;5107238;28;20031;-69
2021/09/02 07:10:11;;;;;;;13.18;9.23;;;;;;;;;;5116685;27;20084;-68
2021/09/02 07:12:37;;;;;;;12.68;8.15;;;;;;;;;;5109664;28;20484;-68
2021/09/02 07:15:04;;;;;;;16.73;9.52;;;;;;;;;;5094744;28;20087;-68
2021/09/02 07:17:30;;;;;;;16.15;8.45;;;;;;;;;;5110302;28;20108;-68
2021/09/02 07:19:57;;;;;;;12.02;8.60;;;;;;;;;;5092191;28;20059;-68
2021/09/02 07:22:23;;;;;;;18.55;9.07;;;;;;;;;;5108565;28;20112;-68
2021/09/02 07:24:49;;;;;;;13.88;8.77;;;;;;;;;;5095351;28;20027;-68
2021/09/02 07:27:15;;;;;;;13.57;8.65;;;;;;;;;;5089187;28;20019;-68
2021/09/02 07:29:42;;;;;;;14.75;9.63;;;;;;;;;;5087145;28;20106;-68
2021/09/02 07:32:08;;;;;;;15.30;9.25;;;;;;;;;;5104278;28;20019;-68
2021/09/02 07:34:34;;;;;;;15.82;8.98;;;;;;;;;;5105319;28;20058;-69
2021/09/02 07:37:01;;;;;;;16.50;10.07;;;;;;;;;;5104975;28;20031;-68
2021/09/02 07:39:27;;;;;;;13.77;10.45;;;;;;;;;;5107611;28;20024;-68
2021/09/02 07:41:53;;;;;;;17.95;11.27;;;;;;;;;;5109092;28;20027;-68
2021/09/02 07:44:20;;;;;;;16.77;10.00;;;;;;;;;;5109249;28;20046;-68
2021/09/02 07:46:46;;;;;;;18.27;11.25;;;;;;;;;;5105959;28;20023;-68
2021/09/02 07:49:12;;;;;;;14.23;10.93;;;;;;;;;;5104301;28;20020;-68
2021/09/02 07:51:38;;;;;;;15.30;10.73;;;;;;;;;;5110455;28;20070;-68
2021/09/02 07:54:04;;;;;;;18.50;10.95;;;;;;;;;;5093293;28;20028;-68
2021/09/02 07:56:30;;;;;;;17.83;10.38;;;;;;;;;;5107883;28;20398;-69
2021/09/02 07:58:56;;;;;;;13.43;9.38;;;;;;;;;;5104748;28;20027;-68
2021/09/02 08:01:22;;;;;;;18.92;10.70;;;;;;;;;;5102241;28;20028;-68
2021/09/02 08:03:49;;;;;;;14.27;9.75;;;;;;;;;;5106756;28;20044;-68
2021/09/02 08:06:15;;;;;;;12.95;9.75;;;;;;;;;;5102346;28;20103;-68
2021/09/02 08:08:42;;;;;;;13.15;10.02;;;;;;;;;;5101193;28;20020;-68
2021/09/02 08:11:08;;;;;;;12.95;9.95;;;;;;;;;;5107865;28;20593;-68
2021/09/02 08:13:36;;;;;;;12.40;9.50;;;;;;;;;;5108175;28;20023;-68
2021/09/02 08:16:03;;;;;;;14.77;10.30;;;;;;;;;;5107364;28;20140;-68
2021/09/02 08:18:29;;;;;;;14.05;10.23;;;;;;;;;;5109745;28;20023;-69
2021/09/02 08:20:55;;;;;;;13.68;10.68;;;;;;;;;;5093219;28;20032;-68
2021/09/02 08:23:21;;;;;;;18.40;11.23;;;;;;;;;;5110475;28;20027;-68
2021/09/02 08:25:47;;;;;;;17.27;11.00;;;;;;;;;;5110250;28;20038;-68
2021/09/02 08:28:15;;;;;;;17.77;10.75;;;;;;;;;;5089164;28;20230;-69
2021/09/02 08:30:41;;;;;;;16.90;10.32;;;;;;;;;;5111475;28;20031;-68
2021/09/02 08:33:07;;;;;;;14.55;9.65;;;;;;;;;;5107499;28;20023;-68
2021/09/02 08:35:34;;;;;;;13.40;9.07;;;;;;;;;;5109651;28;20053;-68
2021/09/02 08:38:01;;;;;;;17.27;9.65;;;;;;;;;;5108400;28;20231;-68
2021/09/02 08:40:32;;;;;;;13.25;8.02;;;;;;;;;;5108309;28;20015;-68
2021/09/02 08:42:59;;;;;;;16.85;8.43;;;;;;;;;;5108185;28;20028;-67
2021/09/02 08:45:26;;;;;;;11.45;7.15;;;;;;;;;;5086891;28;20034;-68
2021/09/02 08:47:52;;;;;;;14.13;7.53;;;;;;;;;;5101467;28;20583;-68
2021/09/02 08:50:21;;;;;;;12.20;7.35;;;;;;;;;;5112211;28;20043;-68
2021/09/02 08:52:47;;;;;;;14.50;6.85;;;;;;;;;;5109987;28;20035;-67
2021/09/02 08:55:14;;;;;;;12.82;7.72;;;;;;;;;;5110829;28;20032;-68
2021/09/02 08:57:40;;;;;;;12.52;7.63;;;;;;;;;;5106676;28;20024;-68
2021/09/02 09:00:07;;;;;;;13.43;8.73;;;;;;;;;;5108561;28;20019;-68
2021/09/02 09:02:34;;;;;;;13.93;7.65;;;;;;;;;;5105972;28;20107;-68
2021/09/02 09:05:00;;;;;;;14.88;8.73;;;;;;;;;;5109800;28;20020;-68
2021/09/02 09:07:30;;;;;;;16.42;8.38;;;;;;;;;;5106590;28;20022;-68
2021/09/02 09:09:56;;;;;;;16.60;8.23;;;;;;;;;;5106161;28;20423;-68
2021/09/02 09:12:34;;;;;;;19.48;7.93;;;;;;;;;;5110276;28;20032;-68
2021/09/02 09:15:00;;;;;;;14.45;8.07;;;;;;;;;;5107186;28;20064;-68
2021/09/02 09:17:26;;;;;;;14.35;7.60;;;;;;;;;;5108140;28;20043;-68
2021/09/02 09:19:53;;;;;;;15.27;8.52;;;;;;;;;;5104314;28;20039;-68
2021/09/02 09:22:23;;;;;;;12.10;7.18;;;;;;;;;;5108208;28;20027;-68
2021/09/02 09:24:50;;;;;;;13.15;7.20;;;;;;;;;;5107372;28;20074;-68
2021/09/02 09:27:23;;;;;;;14.70;7.80;;;;;;;;;;5108325;28;20024;-68
2021/09/02 09:30:08;;;;;;;13.13;6.90;;;;;;;;;;5080396;28;20451;-68
2021/09/02 09:32:41;;;;;;;15.45;7.80;;;;;;;;;;5104028;28;20203;-68
2021/09/02 09:35:08;;;;;;;17.70;7.35;;;;;;;;;;5104329;28;20100;-69
2021/09/02 09:37:34;;;;;;;12.52;6.95;;;;;;;;;;5101141;28;20509;-68
2021/09/02 09:40:11;;;;;;;16.00;7.00;;;;;;;;;;5105679;28;20024;-68
2021/09/02 09:42:37;;;;;;;12.85;6.63;;;;;;;;;;5106370;28;20027;-68
2021/09/02 09:45:03;;;;;;;11.30;6.70;;;;;;;;;;5103817;28;20020;-68
2021/09/02 09:47:36;;;;;;;13.10;6.60;;;;;;;;;;5083577;28;20024;-68
2021/09/02 09:50:09;;;;;;;13.02;6.50;;;;;;;;;;5102010;28;20027;-67
2021/09/02 09:52:37;;;;;;;12.05;6.40;;;;;;;;;;5103696;27;20034;-67
2021/09/02 09:55:06;;;;;;;14.65;6.50;;;;;;;;;;5104083;28;20024;-68
2021/09/02 09:57:33;;;;;;;24.00;8.02;;;;;;;;;;5104429;28;20027;-68
2021/09/02 10:00:05;;;;;;;15.82;7.45;;;;;;;;;;5081164;28;20030;-68
2021/09/02 10:02:31;;;;;;;9.70;6.40;;;;;;;;;;5104397;28;20064;-67
2021/09/02 10:04:57;;;;;;;26.58;8.23;;;;;;;;;;5103208;28;20027;-68
2021/09/02 10:07:23;;;;;;;19.90;7.57;;;;;;;;;;5104296;28;20038;-68
2021/09/02 10:09:54;;;;;;;13.45;7.82;;;;;;;;;;5102299;27;20015;-68
2021/09/02 10:12:22;;;;;;;14.52;6.47;;;;;;;;;;5103522;28;20023;-68
2021/09/02 10:14:49;;;;;;;13.10;7.25;;;;;;;;;;5103585;28;20035;-68
2021/09/02 10:17:15;;;;;;;14.38;7.47;;;;;;;;;;5102915;28;20340;-68
2021/09/02 10:19:42;;;;;;;21.15;7.80;;;;;;;;;;5101217;28;20077;-68
2021/09/02 10:22:11;;;;;;;17.23;7.95;;;;;;;;;;5104551;28;20039;-68
2021/09/02 10:24:41;;;;;;;15.68;8.02;;;;;;;;;;5102086;28;20504;-68
2021/09/02 10:27:16;;;;;;;17.45;7.82;;;;;;;;;;5084351;28;20397;-68
2021/09/02 10:29:42;;;;;;;15.82;9.07;;;;;;;;;;5099871;28;20119;-68
2021/09/02 10:32:24;;;;;;;14.98;8.60;;;;;;;;;;5104052;28;20032;-68
2021/09/02 10:34:50;;;;;;;13.30;7.40;;;;;;;;;;5103709;28;20023;-68
2021/09/02 10:37:50;;;;;;;16.13;8.30;;;;;;;;;;5102984;28;20035;-68
2021/09/02 10:40:16;;;;;;;15.60;7.80;;;;;;;;;;5103207;28;20032;-68
2021/09/02 10:42:50;;;;;;;22.20;8.50;;;;;;;;;;5101590;28;20560;-68
2021/09/02 10:45:29;;;;;;;17.42;9.82;;;;;;;;;;5107519;27;20080;-68
2021/09/02 10:48:00;;;;;;;15.25;9.68;;;;;;;;;;5107125;28;20035;-68
2021/09/02 10:50:30;;;;;;;18.08;9.77;;;;;;;;;;5103603;28;20074;-68
2021/09/02 10:53:22;;;;;;;13.80;8.25;;;;;;;;;;5104962;28;20106;-69
2021/09/02 10:55:48;;;;;;;;;;;;;;;;;;5107431;28;20046;-68
2021/09/02 10:58:49;;;;;;;18.60;10.57;;;;;;;;;;5109202;28;19907;-68
2021/09/02 11:01:21;;;;;;;20.37;11.13;;;;;;;;;;5020770;28;20045;-68
2021/09/02 11:03:47;;;;;;;16.90;10.48;;;;;;;;;;5095345;28;20267;-67
2021/09/02 11:06:15;;;;;;;18.40;11.85;;;;;;;;;;5109605;28;20027;-67
2021/09/02 11:08:41;;;;;;;14.38;9.73;;;;;;;;;;5090086;28;20033;-68
2021/09/02 11:11:10;;;;;;;17.70;9.85;;;;;;;;;;5088152;28;20019;-68
2021/09/02 11:13:36;;;;;;;16.98;9.20;;;;;;;;;;5104094;28;20296;-68
2021/09/02 11:16:08;;;;;;;19.13;11.02;;;;;;;;;;5105775;28;20473;-69
2021/09/02 11:18:47;;;;;;;18.77;11.68;;;;;;;;;;5103481;28;20089;-68
2021/09/02 11:21:21;;;;;;;20.10;12.25;;;;;;;;;;5109840;28;20055;-68
2021/09/02 11:23:48;;;;;;;18.10;11.07;;;;;;;;;;5091106;28;20601;-68
2021/09/02 11:26:33;;;;;;;22.00;10.43;;;;;;;;;;5108280;28;20079;-69
2021/09/02 11:28:59;;;;;;;19.40;10.77;;;;;;;;;;5107249;28;20185;-68
2021/09/02 11:31:26;;;;;;;19.38;11.25;;;;;;;;;;5108688;28;20024;-69
2021/09/02 11:33:52;;;;;;;19.45;11.10;;;;;;;;;;5109848;28;20425;-68
2021/09/02 11:36:19;;;;;;;16.00;9.38;;;;;;;;;;5100238;28;20028;-68
2021/09/02 11:38:46;;;;;;;20.45;9.75;;;;;;;;;;5106496;28;20011;-68
2021/09/02 11:41:20;;;;;;;19.15;9.93;;;;;;;;;;5109707;28;20558;-68
2021/09/02 11:43:47;;;;;;;19.38;9.88;;;;;;;;;;5108982;28;20019;-69
2021/09/02 11:46:14;;;;;;;17.33;9.32;;;;;;;;;;5109339;28;20036;-72
2021/09/02 11:48:47;;;;;;;15.23;9.20;;;;;;;;;;5106525;28;20877;-69
2021/09/02 11:51:18;;;;;;;18.65;10.73;;;;;;;;;;5110321;28;20047;-69
2021/09/02 11:53:44;;;;;;;21.08;10.30;;;;;;;;;;5112374;28;20443;-69
2021/09/02 11:56:12;;;;;;;17.63;10.60;;;;;;;;;;5113686;28;20050;-69
2021/09/02 11:58:38;;;;;;;17.17;9.27;;;;;;;;;;5092037;28;20049;-70
2021/09/02 12:01:04;;;;;;;23.05;10.38;;;;;;;;;;5113115;28;20058;-69
2021/09/02 12:03:31;;;;;;;18.15;9.98;;;;;;;;;;5112696;28;20024;-69
2021/09/02 12:05:57;;;;;;;14.95;8.23;;;;;;;;;;5113348;28;20103;-71
2021/09/02 12:08:25;;;;;;;18.90;11.07;;;;;;;;;;5110085;28;20046;-69
2021/09/02 12:10:51;;;;;;;19.90;9.82;;;;;;;;;;5113403;28;20027;-69
2021/09/02 12:13:22;;;;;;;18.35;10.15;;;;;;;;;;5113622;28;20098;-70
2021/09/02 12:16:07;;;;;;;20.03;9.47;;;;;;;;;;5093930;28;20403;-70
2021/09/02 12:18:33;;;;;;;18.42;9.95;;;;;;;;;;5109846;28;20271;-69
2021/09/02 12:21:13;;;;;;;21.63;9.75;;;;;;;;;;5113264;28;20095;-70
2021/09/02 12:23:52;;;;;;;16.98;9.30;;;;;;;;;;5112702;28;20059;-69
2021/09/02 12:26:20;;;;;;;18.85;9.63;;;;;;;;;;5112720;27;20055;-68
2021/09/02 12:28:47;;;;;;;18.50;9.25;;;;;;;;;;5110197;28;20020;-68
2021/09/02 12:31:25;;;;;;;19.83;10.07;;;;;;;;;;5105426;28;20281;-68
2021/09/02 12:33:57;;;;;;;21.48;11.57;;;;;;;;;;5113140;28;20106;-69
2021/09/02 12:36:23;;;;;;;23.10;11.30;;;;;;;;;;5112572;28;20032;-69
2021/09/02 12:38:50;;;;;;;23.20;11.55;;;;;;;;;;5110112;28;20145;-69
2021/09/02 12:41:17;;;;;;;19.58;10.60;;;;;;;;;;5092185;28;20031;-69
2021/09/02 12:44:02;;;;;;;23.23;13.25;;;;;;;;;;5113315;28;20028;-69
2021/09/02 12:46:29;;;;;;;19.42;11.90;;;;;;;;;;5112554;28;20042;-68
2021/09/02 12:49:10;;;;;;;19.80;10.95;;;;;;;;;;5091889;28;20297;-68
2021/09/02 12:51:37;;;;;;;20.58;10.77;;;;;;;;;;5109494;28;20051;-68
2021/09/02 12:54:03;;;;;;;21.45;11.80;;;;;;;;;;5116350;27;20030;-69
2021/09/02 12:56:38;;;;;;;16.63;9.98;;;;;;;;;;5112960;28;20063;-70
2021/09/02 12:59:05;;;;;;;19.38;9.68;;;;;;;;;;5104747;28;20077;-69
2021/09/02 13:01:31;;;;;;;18.42;10.30;;;;;;;;;;5093803;28;20027;-68
2021/09/02 13:04:01;;;;;;;21.20;10.13;;;;;;;;;;5108441;28;20023;-68
2021/09/02 13:06:31;;;;;;;21.25;10.77;;;;;;;;;;5104475;28;20032;-70
2021/09/02 13:09:04;;;;;;;22.02;11.80;;;;;;;;;;5091949;28;20394;-69
2021/09/02 13:11:30;;;;;;;16.05;11.50;;;;;;;;;;5112343;28;20061;-68
2021/09/02 13:13:56;;;;;;;20.38;11.38;;;;;;;;;;5110905;28;20055;-69
2021/09/02 13:16:23;;;;;;;21.83;11.85;;;;;;;;;;5106631;28;20027;-68
2021/09/02 13:18:49;;;;;;;21.77;13.65;;;;;;;;;;5090218;28;20047;-69
2021/09/02 13:21:15;;;;;;;19.67;13.90;;;;;;;;;;5111560;28;20111;-69
2021/09/02 13:23:41;;;;;;;20.63;13.48;;;;;;;;;;5112216;28;20085;-71
2021/09/02 13:26:10;;;;;;;23.38;11.68;;;;;;;;;;5111597;28;20507;-68
2021/09/02 13:28:36;;;;;;;22.42;10.38;;;;;;;;;;5107098;28;20024;-70
2021/09/02 13:31:02;;;;;;;21.20;10.85;;;;;;;;;;5095561;28;20032;-68
2021/09/02 13:33:28;;;;;;;21.50;11.02;;;;;;;;;;5110928;28;20023;-69
2021/09/02 13:35:54;;;;;;;23.83;9.93;;;;;;;;;;5092652;28;20059;-69
2021/09/02 13:38:20;;;;;;;23.05;11.00;;;;;;;;;;5109115;28;20277;-69
2021/09/02 13:40:47;;;;;;;25.52;12.00;;;;;;;;;;5111918;28;20024;-69
2021/09/02 13:43:13;;;;;;;25.58;11.80;;;;;;;;;;5111787;28;20034;-69
2021/09/02 13:45:39;;;;;;;23.23;10.40;;;;;;;;;;5091542;28;20038;-69
2021/09/02 13:48:05;;;;;;;25.90;11.93;;;;;;;;;;5106787;28;20031;-71
2021/09/02 13:50:31;;;;;;;30.20;11.55;;;;;;;;;;5105460;28;20043;-68
2021/09/02 13:52:57;;;;;;;27.48;10.15;;;;;;;;;;5106774;28;20024;-70
2021/09/02 13:55:23;;;;;;;20.30;9.73;;;;;;;;;;5109477;28;20141;-69
2021/09/02 13:57:49;;;;;;;23.48;9.60;;;;;;;;;;5105420;28;20461;-71
2021/09/02 14:00:15;;;;;;;27.40;9.93;;;;;;;;;;5092233;28;20027;-69
2021/09/02 14:02:41;;;;;;;24.45;9.98;;;;;;;;;;5110651;28;20711;-69
2021/09/02 14:05:08;;;;;;;27.05;10.45;;;;;;;;;;5111865;28;20044;-68
2021/09/02 14:07:35;;;;;;;17.55;10.23;;;;;;;;;;5109140;28;20016;-69
2021/09/02 14:10:01;;;;;;;19.67;8.73;;;;;;;;;;5102626;28;20015;-68
2021/09/02 14:12:27;;;;;;;25.48;9.88;;;;;;;;;;5110100;28;20489;-69
2021/09/02 14:14:53;;;;;;;16.65;9.30;;;;;;;;;;5110431;28;20268;-68
2021/09/02 14:17:19;;;;;;;17.27;9.48;;;;;;;;;;5111307;28;20027;-68
2021/09/02 14:19:45;;;;;;;18.85;9.45;;;;;;;;;;5106174;28;20036;-67
2021/09/02 14:22:11;;;;;;;16.45;9.02;;;;;;;;;;5110604;28;20041;-69
2021/09/02 14:24:37;;;;;;;21.83;9.68;;;;;;;;;;5110783;28;20102;-68